createdAt,value
2022-08-10T00:00:51.571Z,18.67
2022-08-10T00:05:56.505Z,18.66
2022-08-10T00:10:58.335Z,18.67
2022-08-10T00:16:00.030Z,18.65
2022-08-10T00:21:01.702Z,18.59
2022-08-10T00:26:04.027Z,18.53
2022-08-10T00:31:05.831Z,18.50
2022-08-10T00:36:07.723Z,18.40
2022-08-10T00:41:09.447Z,18.18
2022-08-10T00:46:11.143Z,18.03
2022-08-10T00:51:12.819Z,17.78
2022-08-10T00:57:12.769Z,17.62
2022-08-10T01:02:08.539Z,17.76
2022-08-10T01:07:26.621Z,17.84
2022-08-10T01:12:50.346Z,17.78
2022-08-10T01:18:00.892Z,17.81
2022-08-10T01:23:21.244Z,17.76
2022-08-10T01:28:29.165Z,17.61
2022-08-10T01:34:02.465Z,17.48
2022-08-10T01:39:04.324Z,17.54
2022-08-10T01:44:11.406Z,17.55
2022-08-10T01:49:14.178Z,17.43
2022-08-10T01:54:19.889Z,17.38
2022-08-10T01:59:23.748Z,17.36
2022-08-10T02:04:26.022Z,17.29
2022-08-10T02:09:32.782Z,17.25
2022-08-10T02:14:40.813Z,17.19
2022-08-10T02:19:43.177Z,17.11
2022-08-10T02:24:44.865Z,17.08
2022-08-10T02:29:49.046Z,17.03
2022-08-10T02:34:51.235Z,16.92
2022-08-10T02:39:53.427Z,16.84
2022-08-10T02:45:23.630Z,16.73
2022-08-10T02:50:32.862Z,16.52
2022-08-10T02:55:42.579Z,16.30
2022-08-10T03:00:47.224Z,16.11
2022-08-10T03:05:50.973Z,16.00
2022-08-10T03:10:52.687Z,15.93
2022-08-10T03:15:54.413Z,15.85
2022-08-10T03:20:56.166Z,15.84
2022-08-10T03:25:57.970Z,15.77
2022-08-10T03:31:00.259Z,15.96
2022-08-10T03:36:40.265Z,16.02
2022-08-10T03:41:36.665Z,16.09
2022-08-10T03:46:40.587Z,16.05
2022-08-10T03:51:42.289Z,15.98
2022-08-10T03:56:44.113Z,15.98
2022-08-10T04:02:52.879Z,16.25
2022-08-10T04:07:07.693Z,16.37
2022-08-10T04:12:09.428Z,16.31
2022-08-10T04:17:14.068Z,16.24
2022-08-10T04:22:20.396Z,16.26
2022-08-10T04:27:22.064Z,16.19
2022-08-10T04:32:24.044Z,16.28
2022-08-10T04:37:25.772Z,16.25
2022-08-10T04:42:27.438Z,16.29
2022-08-10T04:47:57.896Z,16.38
2022-08-10T04:52:51.231Z,16.50
2022-08-10T04:57:53.010Z,16.50
2022-08-10T05:02:54.699Z,16.48
2022-08-10T05:07:57.067Z,16.51
2022-08-10T05:12:58.864Z,16.61
2022-08-10T05:18:06.801Z,16.68
2022-08-10T05:23:11.701Z,16.68
2022-08-10T05:28:13.383Z,16.67
2022-08-10T05:33:15.072Z,16.69
2022-08-10T05:38:17.042Z,16.68
2022-08-10T05:43:20.037Z,16.72
2022-08-10T05:48:41.894Z,16.69
2022-08-10T05:54:03.615Z,16.83
2022-08-10T05:59:05.289Z,16.95
2022-08-10T06:04:06.981Z,16.98
2022-08-10T06:09:08.703Z,17.05
2022-08-10T06:14:29.210Z,17.18
2022-08-10T06:19:31.058Z,17.28
2022-08-10T06:24:36.269Z,17.37
2022-08-10T06:29:38.052Z,17.55
2022-08-10T06:34:41.789Z,17.68
2022-08-10T06:39:44.344Z,17.88
2022-08-10T06:45:04.632Z,17.90
2022-08-10T06:50:10.829Z,18.08
2022-08-10T06:55:16.775Z,18.27
2022-08-10T07:00:20.530Z,18.37
2022-08-10T07:05:27.092Z,18.43
2022-08-10T07:10:46.080Z,18.63
2022-08-10T07:15:59.186Z,18.78
2022-08-10T07:21:02.221Z,18.90
2022-08-10T07:26:03.996Z,19.00
2022-08-10T07:31:35.413Z,19.08
2022-08-10T07:36:27.452Z,19.29
2022-08-10T07:41:31.889Z,19.41
2022-08-10T07:46:33.721Z,19.52
2022-08-10T08:24:04.976Z,20.44
2022-08-10T08:26:37.963Z,20.61
2022-08-10T08:32:01.073Z,20.77
2022-08-10T08:37:01.645Z,20.91
2022-08-10T08:42:35.553Z,21.08
2022-08-10T08:48:04.720Z,21.33
2022-08-10T08:53:22.961Z,21.50
2022-08-10T08:58:58.464Z,21.63
2022-08-10T09:04:34.069Z,21.81
2022-08-10T09:09:38.334Z,21.95
2022-08-10T09:15:40.880Z,21.99
2022-08-10T09:20:48.229Z,22.20
2022-08-10T09:26:07.931Z,22.35
2022-08-10T09:31:21.948Z,22.48
2022-08-10T09:37:04.152Z,22.53
2022-08-10T09:42:16.019Z,22.71
2022-08-10T09:47:58.566Z,22.82
2022-08-10T09:53:04.978Z,22.96
2022-08-10T09:58:15.327Z,23.02
2022-08-10T10:03:25.982Z,22.99
2022-08-10T10:08:36.437Z,23.08
2022-08-10T10:14:02.545Z,23.19
2022-08-10T10:19:25.749Z,23.38
2022-08-10T10:24:43.145Z,23.52
2022-08-10T10:30:06.218Z,23.66
2022-08-10T10:35:29.142Z,24.00
2022-08-10T10:41:07.104Z,24.18
2022-08-10T10:46:16.239Z,24.43
2022-08-10T10:51:53.735Z,24.68
2022-08-10T10:57:17.407Z,24.82
2022-08-10T11:02:32.474Z,24.89
2022-08-10T11:07:36.181Z,25.12
2022-08-10T11:12:57.676Z,25.38
2022-08-10T11:18:36.469Z,25.60
2022-08-10T11:24:48.749Z,25.84
2022-08-10T11:29:35.194Z,25.94
2022-08-10T11:35:34.626Z,25.95
2022-08-10T11:40:43.334Z,26.22
2022-08-10T11:45:52.128Z,26.31
2022-08-10T11:51:01.421Z,26.61
2022-08-10T11:56:03.608Z,26.99
2022-08-10T12:01:13.509Z,27.58
2022-08-10T12:06:28.933Z,28.52
2022-08-10T12:11:35.658Z,29.31
2022-08-10T12:16:39.678Z,29.83
2022-08-10T12:21:45.445Z,30.22
2022-08-10T12:27:00.396Z,30.44
2022-08-10T12:32:11.210Z,30.98
2022-08-10T12:37:33.440Z,31.37
2022-08-10T12:42:43.232Z,31.88
2022-08-10T12:48:31.366Z,32.16
2022-08-10T12:53:51.929Z,32.21
2022-08-10T12:59:00.248Z,32.84
2022-08-10T13:04:22.711Z,33.08
2022-08-10T13:09:25.942Z,33.40
2022-08-10T13:14:56.950Z,33.80
2022-08-10T13:20:08.185Z,33.96
2022-08-10T13:25:16.665Z,34.16
2022-08-10T13:30:37.581Z,34.51
2022-08-10T13:35:40.156Z,34.73
2022-08-10T13:40:41.997Z,34.99
2022-08-10T13:45:49.251Z,35.17
2022-08-10T13:50:52.690Z,35.51
2022-08-10T13:55:56.924Z,36.00
2022-08-10T14:01:00.124Z,36.30
2022-08-10T14:06:01.991Z,36.39
2022-08-10T14:11:10.851Z,36.24
2022-08-10T14:16:14.132Z,36.67
2022-08-10T14:21:16.146Z,37.10
2022-08-10T14:26:26.371Z,37.54
2022-08-10T14:31:33.763Z,37.45
2022-08-10T14:36:56.353Z,37.40
2022-08-10T14:42:00.868Z,37.83
2022-08-10T14:47:52.275Z,37.82
2022-08-10T14:52:30.632Z,37.90
2022-08-10T14:58:19.868Z,38.25
2022-08-10T15:02:57.980Z,38.52
2022-08-10T15:08:00.159Z,38.63
2022-08-10T15:13:03.577Z,38.57
2022-08-10T15:18:06.721Z,38.65
2022-08-10T15:23:30.517Z,38.62
2022-08-10T15:29:22.912Z,38.86
2022-08-10T15:34:14.072Z,38.10
2022-08-10T15:40:21.919Z,37.91
2022-08-10T15:44:41.617Z,37.92
2022-08-10T15:50:03.572Z,37.59
2022-08-10T15:55:43.778Z,36.99
2022-08-10T16:00:39.766Z,36.73
2022-08-10T16:06:02.052Z,36.39
2022-08-10T16:11:05.781Z,36.72
2022-08-10T16:16:11.415Z,36.68
2022-08-10T16:21:19.054Z,36.73
2022-08-10T16:26:28.203Z,36.60
2022-08-10T16:31:33.873Z,36.47
2022-08-10T16:36:42.182Z,36.21
2022-08-10T16:42:03.017Z,36.13
2022-08-10T16:47:06.883Z,35.70
2022-08-10T16:52:08.584Z,35.55
2022-08-10T16:57:10.317Z,35.38
2022-08-10T17:02:16.093Z,35.31
2022-08-10T17:07:18.606Z,35.04
2022-08-10T17:12:24.239Z,34.87
2022-08-10T17:17:30.787Z,34.57
2022-08-10T17:22:36.212Z,34.36
2022-08-10T17:28:03.922Z,34.32
2022-08-10T17:33:11.069Z,34.24
2022-08-10T17:38:20.992Z,33.89
2022-08-10T17:43:58.324Z,33.70
2022-08-10T17:48:45.956Z,33.37
2022-08-10T17:53:49.689Z,33.02
2022-08-10T17:59:01.128Z,32.68
2022-08-10T18:04:05.256Z,32.33
2022-08-10T18:09:11.409Z,32.00
2022-08-10T18:14:13.173Z,31.93
2022-08-10T18:19:14.888Z,31.77
2022-08-10T18:24:17.772Z,31.44
2022-08-10T18:29:21.979Z,30.98
2022-08-10T18:34:23.773Z,30.59
2022-08-10T18:39:30.029Z,30.12
2022-08-10T18:44:35.535Z,29.73
2022-08-10T18:49:37.034Z,29.37
2022-08-10T18:54:44.916Z,28.98
2022-08-10T19:00:08.852Z,28.52
2022-08-10T19:05:36.826Z,28.10
2022-08-10T19:11:02.095Z,27.63
2022-08-10T19:16:10.505Z,27.19
2022-08-10T19:21:19.244Z,26.80
2022-08-10T19:26:42.502Z,26.40
2022-08-10T19:32:40.520Z,26.07
2022-08-10T19:38:14.727Z,25.79
2022-08-10T19:43:59.283Z,25.49
2022-08-10T19:49:19.375Z,25.19
2022-08-10T19:54:53.102Z,24.87
2022-08-10T20:00:17.049Z,24.62
2022-08-10T20:05:33.351Z,24.36
2022-08-10T20:10:57.118Z,23.99
2022-08-10T20:16:02.892Z,23.70
2022-08-10T20:21:14.818Z,23.47
2022-08-10T20:26:23.276Z,23.32
2022-08-10T20:31:29.452Z,23.15
2022-08-10T20:36:33.055Z,23.02
2022-08-10T20:42:03.581Z,22.83
2022-08-10T20:47:24.928Z,22.69
2022-08-10T20:52:26.709Z,22.52
2022-08-10T20:58:04.789Z,22.28
2022-08-10T21:03:31.744Z,22.17
2022-08-10T21:08:59.764Z,22.04
2022-08-10T21:14:13.555Z,21.87
2022-08-10T21:19:30.472Z,21.74
2022-08-10T21:24:55.676Z,21.60
2022-08-10T21:30:09.207Z,21.35
2022-08-10T21:35:40.173Z,21.11
2022-08-10T21:41:19.094Z,21.00
2022-08-10T21:46:58.784Z,20.88
2022-08-10T21:52:32.730Z,20.64
2022-08-10T21:58:27.433Z,20.53
2022-08-10T22:03:47.970Z,20.43
2022-08-10T22:09:18.183Z,20.48
2022-08-10T22:14:52.682Z,20.31
2022-08-10T22:20:24.778Z,20.13
2022-08-10T22:26:26.743Z,19.97
2022-08-10T22:32:16.082Z,19.77
2022-08-10T22:38:07.971Z,19.61
2022-08-10T22:43:36.900Z,19.52
2022-08-10T22:49:01.962Z,19.46
2022-08-10T22:54:52.637Z,19.38
2022-08-10T22:59:54.301Z,19.23
2022-08-10T23:04:58.785Z,19.15
2022-08-10T23:10:03.561Z,19.10
2022-08-10T23:15:25.395Z,19.01
2022-08-10T23:20:27.159Z,18.92
2022-08-10T23:25:31.907Z,18.87
2022-08-10T23:30:36.743Z,18.82
2022-08-10T23:36:31.080Z,18.68
2022-08-10T23:41:11.706Z,18.58
2022-08-10T23:46:13.421Z,18.38
2022-08-10T23:51:16.317Z,18.29
2022-08-10T23:56:20.440Z,18.18
